Ana Sayfa
METAR-TAF:

METAR-TAF

Havaalanları :

Alva Regional Airport

Alva, Oklahoma, Amerika Birleşik Devletleri

Enlem: 36-46-23N, Boylam: 098-40-12W, yükseklik: 449 m

Güncel hava durumu gözlemi

Rapor saat 04:15 UTC de 20 dakika önce yapıldı.
Rüzgar kuzeybatıdan 10 kt
Sıcaklık 10°C
Nem 66%
Basınç 1017 hPa
Görüş mesafesi: 16.1 km
Açık gökyüzü

METAR: KAVK 190415Z AUTO 32010KT 10SM CLR 10/04 A3004 RMK AO2

Saat: 23:35 (04:35 UTC)


TAF: eksik

4.000'den fazla havaalanı için hava durumu gözlemleri ve tahminleri (METAR ve TAF raporları).

Kullanılabilir istasyonlar harita üzerinde sarı ve kırmızı noktalarla gösterilir.

İstasyonun adını görmek için fareyi noktanın üzerinde gezdirin.

Sonrasında hava gözlem ve tahminlerini görmek için tıklayın.

Haritayı değiştirmek için: yaklaştırmak için siyah artı işaretli yeşil düğmeye ve uzaklaştırmak için de eksi işaretli düğmeye hızla tıklayın; bitişik haritalar için yeşil okları kullanın.


METAR-TAF: